sensor_id;sensor_type;location;lat;lon;timestamp;pressure;altitude;pressure_sealevel;temperature;humidity
20105;BME280;10212;42.714;23.310;2023-04-03T00:03:19;94572.50;;;6.04;77.75
20105;BME280;10212;42.714;23.310;2023-04-03T00:13:19;94556.94;;;5.75;79.01
20105;BME280;10212;42.714;23.310;2023-04-03T00:23:19;94548.22;;;5.54;80.38
20105;BME280;10212;42.714;23.310;2023-04-03T00:33:20;94551.25;;;5.43;81.83
20105;BME280;10212;42.714;23.310;2023-04-03T00:43:23;94548.84;;;5.19;83.14
20105;BME280;10212;42.714;23.310;2023-04-03T00:53:27;94567.59;;;5.06;83.80
20105;BME280;10212;42.714;23.310;2023-04-03T01:03:30;94563.06;;;5.09;84.40
20105;BME280;10212;42.714;23.310;2023-04-03T01:13:32;94566.72;;;4.99;84.31
20105;BME280;10212;42.714;23.310;2023-04-03T01:23:36;94565.47;;;4.95;83.54
20105;BME280;10212;42.714;23.310;2023-04-03T01:33:38;94572.34;;;4.73;84.32
20105;BME280;10212;42.714;23.310;2023-04-03T01:43:39;94568.72;;;4.67;85.11
20105;BME280;10212;42.714;23.310;2023-04-03T01:53:39;94564.78;;;4.71;85.63
20105;BME280;10212;42.714;23.310;2023-04-03T02:03:40;94573.59;;;4.62;86.03
20105;BME280;10212;42.714;23.310;2023-04-03T02:13:40;94566.72;;;4.69;84.50
20105;BME280;10212;42.714;23.310;2023-04-03T02:23:40;94563.97;;;4.55;84.90
20105;BME280;10212;42.714;23.310;2023-04-03T02:33:40;94550.81;;;4.50;85.99
20105;BME280;10212;42.714;23.310;2023-04-03T02:43:41;94545.00;;;4.33;87.00
20105;BME280;10212;42.714;23.310;2023-04-03T02:53:41;94539.91;;;4.25;87.46
20105;BME280;10212;42.714;23.310;2023-04-03T03:03:42;94537.50;;;4.23;88.09
20105;BME280;10212;42.714;23.310;2023-04-03T03:24:12;94524.16;;;4.04;89.91
20105;BME280;10212;42.714;23.310;2023-04-03T03:34:13;94536.59;;;4.01;90.10
20105;BME280;10212;42.714;23.310;2023-04-03T03:44:13;94541.28;;;3.82;90.30
20105;BME280;10212;42.714;23.310;2023-04-03T03:54:13;94537.63;;;3.76;90.72
20105;BME280;10212;42.714;23.310;2023-04-03T04:04:14;94543.31;;;3.71;90.73
20105;BME280;10212;42.714;23.310;2023-04-03T04:14:14;94532.81;;;3.73;90.42
20105;BME280;10212;42.714;23.310;2023-04-03T04:24:15;94559.81;;;3.62;91.24
20105;BME280;10212;42.714;23.310;2023-04-03T04:34:15;94552.66;;;3.88;90.80
20105;BME280;10212;42.714;23.310;2023-04-03T04:44:15;94575.41;;;4.07;89.33
20105;BME280;10212;42.714;23.310;2023-04-03T04:54:16;94581.13;;;4.18;88.38
20105;BME280;10212;42.714;23.310;2023-04-03T05:04:16;94587.47;;;4.30;87.67
20105;BME280;10212;42.714;23.310;2023-04-03T05:14:17;94602.22;;;4.21;88.43
20105;BME280;10212;42.714;23.310;2023-04-03T05:24:17;94618.75;;;4.66;86.67
20105;BME280;10212;42.714;23.310;2023-04-03T05:34:18;94615.72;;;4.92;85.50
20105;BME280;10212;42.714;23.310;2023-04-03T05:44:18;94603.97;;;4.60;85.71
20105;BME280;10212;42.714;23.310;2023-04-03T05:54:20;94599.25;;;4.78;85.42
20105;BME280;10212;42.714;23.310;2023-04-03T06:04:23;94584.34;;;5.11;84.34
20105;BME280;10212;42.714;23.310;2023-04-03T06:14:23;94575.16;;;5.45;82.45
20105;BME280;10212;42.714;23.310;2023-04-03T06:24:23;94565.47;;;5.69;81.45
20105;BME280;10212;42.714;23.310;2023-04-03T06:34:25;94563.06;;;6.11;78.88
20105;BME280;10212;42.714;23.310;2023-04-03T06:44:25;94584.50;;;6.34;78.56
20105;BME280;10212;42.714;23.310;2023-04-03T06:54:26;94583.84;;;6.89;76.43
20105;BME280;10212;42.714;23.310;2023-04-03T07:04:26;94585.81;;;7.36;74.72
20105;BME280;10212;42.714;23.310;2023-04-03T07:14:26;94580.34;;;7.80;73.36
20105;BME280;10212;42.714;23.310;2023-04-03T07:24:27;94565.16;;;8.17;72.22
20105;BME280;10212;42.714;23.310;2023-04-03T07:34:27;94554.06;;;9.36;67.93
20105;BME280;10212;42.714;23.310;2023-04-03T07:44:27;94547.25;;;9.74;65.96
20105;BME280;10212;42.714;23.310;2023-04-03T07:54:28;94536.41;;;9.77;64.87
20105;BME280;10212;42.714;23.310;2023-04-03T08:04:28;94521.88;;;9.95;64.15
20105;BME280;10212;42.714;23.310;2023-04-03T08:14:30;94517.19;;;9.78;64.53
20105;BME280;10212;42.714;23.310;2023-04-03T08:24:31;94515.34;;;10.93;62.08
20105;BME280;10212;42.714;23.310;2023-04-03T08:34:32;94508.53;;;11.53;59.70
20105;BME280;10212;42.714;23.310;2023-04-03T08:44:39;94494.66;;;11.41;59.75
20105;BME280;10212;42.714;23.310;2023-04-03T08:54:51;94488.66;;;12.43;56.77
20105;BME280;10212;42.714;23.310;2023-04-03T09:04:52;94477.25;;;12.01;57.26
20105;BME280;10212;42.714;23.310;2023-04-03T09:45:25;94424.53;;;13.11;55.18
20105;BME280;10212;42.714;23.310;2023-04-03T09:55:27;94414.66;;;13.82;52.20
20105;BME280;10212;42.714;23.310;2023-04-03T10:05:35;94401.72;;;13.92;52.52
20105;BME280;10212;42.714;23.310;2023-04-03T10:15:36;94398.41;;;13.45;54.79
20105;BME280;10212;42.714;23.310;2023-04-03T10:25:40;94392.84;;;12.95;56.38
20105;BME280;10212;42.714;23.310;2023-04-03T10:35:44;94379.50;;;12.80;56.24
20105;BME280;10212;42.714;23.310;2023-04-03T10:46:27;94370.44;;;12.99;56.29
20105;BME280;10212;42.714;23.310;2023-04-03T10:56:50;94355.47;;;13.64;53.65
20105;BME280;10212;42.714;23.310;2023-04-03T11:06:39;94355.69;;;13.27;54.52
20105;BME280;10212;42.714;23.310;2023-04-03T11:16:53;94375.50;;;13.06;56.44
20105;BME280;10212;42.714;23.310;2023-04-03T11:26:55;94372.09;;;11.70;63.01
20105;BME280;10212;42.714;23.310;2023-04-03T11:36:57;94378.09;;;10.92;71.56
20105;BME280;10212;42.714;23.310;2023-04-03T12:07:32;94379.34;;;10.58;79.49
20105;BME280;10212;42.714;23.310;2023-04-03T12:17:33;94382.09;;;10.07;83.74
20105;BME280;10212;42.714;23.310;2023-04-03T12:27:34;94364.78;;;9.57;90.77
20105;BME280;10212;42.714;23.310;2023-04-03T12:47:52;94341.34;;;8.34;100.00
20105;BME280;10212;42.714;23.310;2023-04-03T12:57:53;94341.31;;;7.88;100.00
20105;BME280;10212;42.714;23.310;2023-04-03T13:08:03;94344.16;;;7.80;100.00
20105;BME280;10212;42.714;23.310;2023-04-03T13:18:05;94338.78;;;7.61;100.00
20105;BME280;10212;42.714;23.310;2023-04-03T13:28:05;94337.59;;;7.50;100.00
20105;BME280;10212;42.714;23.310;2023-04-03T13:48:18;94322.88;;;7.37;100.00
20105;BME280;10212;42.714;23.310;2023-04-03T13:58:22;94317.88;;;7.42;100.00
20105;BME280;10212;42.714;23.310;2023-04-03T14:08:23;94310.88;;;7.50;100.00
20105;BME280;10212;42.714;23.310;2023-04-03T14:18:23;94299.72;;;7.42;100.00
20105;BME280;10212;42.714;23.310;2023-04-03T14:28:24;94296.94;;;7.37;100.00
20105;BME280;10212;42.714;23.310;2023-04-03T14:38:26;94296.75;;;7.25;100.00
20105;BME280;10212;42.714;23.310;2023-04-03T14:48:27;94293.16;;;7.19;100.00
20105;BME280;10212;42.714;23.310;2023-04-03T14:58:28;94276.81;;;7.19;100.00
20105;BME280;10212;42.714;23.310;2023-04-03T15:08:28;94282.41;;;6.95;100.00
20105;BME280;10212;42.714;23.310;2023-04-03T15:18:30;94269.84;;;6.85;100.00
20105;BME280;10212;42.714;23.310;2023-04-03T15:28:33;94258.88;;;6.90;100.00
20105;BME280;10212;42.714;23.310;2023-04-03T15:38:35;94251.69;;;7.06;100.00
20105;BME280;10212;42.714;23.310;2023-04-03T15:48:37;94232.34;;;7.08;100.00
20105;BME280;10212;42.714;23.310;2023-04-03T15:58:37;94227.41;;;6.93;100.00
20105;BME280;10212;42.714;23.310;2023-04-03T16:08:38;94219.81;;;6.98;100.00
20105;BME280;10212;42.714;23.310;2023-04-03T16:18:38;94216.63;;;6.90;100.00
20105;BME280;10212;42.714;23.310;2023-04-03T16:28:39;94196.69;;;6.77;100.00
20105;BME280;10212;42.714;23.310;2023-04-03T16:38:39;94179.56;;;6.75;100.00
20105;BME280;10212;42.714;23.310;2023-04-03T16:48:39;94134.50;;;6.77;100.00
20105;BME280;10212;42.714;23.310;2023-04-03T16:58:40;94099.06;;;6.70;100.00
20105;BME280;10212;42.714;23.310;2023-04-03T17:08:41;94088.09;;;6.68;100.00
20105;BME280;10212;42.714;23.310;2023-04-03T17:18:41;94090.13;;;6.53;100.00
20105;BME280;10212;42.714;23.310;2023-04-03T17:28:42;94084.75;;;6.47;100.00
20105;BME280;10212;42.714;23.310;2023-04-03T17:38:42;94072.00;;;6.39;100.00
20105;BME280;10212;42.714;23.310;2023-04-03T17:48:43;94069.59;;;6.51;100.00
20105;BME280;10212;42.714;23.310;2023-04-03T17:58:43;94062.81;;;6.57;100.00
20105;BME280;10212;42.714;23.310;2023-04-03T18:08:45;94063.66;;;6.44;100.00
20105;BME280;10212;42.714;23.310;2023-04-03T18:18:47;94046.47;;;6.49;100.00
20105;BME280;10212;42.714;23.310;2023-04-03T18:28:48;94039.72;;;6.48;100.00
20105;BME280;10212;42.714;23.310;2023-04-03T18:38:50;94046.88;;;6.53;100.00
20105;BME280;10212;42.714;23.310;2023-04-03T18:48:51;94026.16;;;6.46;100.00
20105;BME280;10212;42.714;23.310;2023-04-03T18:58:52;94027.78;;;6.47;100.00
20105;BME280;10212;42.714;23.310;2023-04-03T19:08:52;94005.03;;;6.49;100.00
20105;BME280;10212;42.714;23.310;2023-04-03T19:18:52;93973.97;;;6.49;100.00
20105;BME280;10212;42.714;23.310;2023-04-03T19:28:53;93966.44;;;6.41;100.00
20105;BME280;10212;42.714;23.310;2023-04-03T19:38:53;93983.19;;;6.38;100.00
20105;BME280;10212;42.714;23.310;2023-04-03T19:48:53;93945.16;;;6.32;100.00
20105;BME280;10212;42.714;23.310;2023-04-03T19:58:54;93950.28;;;6.39;100.00
20105;BME280;10212;42.714;23.310;2023-04-03T20:08:54;93946.75;;;6.26;100.00
20105;BME280;10212;42.714;23.310;2023-04-03T20:18:55;93955.72;;;6.24;100.00
20105;BME280;10212;42.714;23.310;2023-04-03T20:28:56;93943.00;;;6.09;100.00
20105;BME280;10212;42.714;23.310;2023-04-03T20:38:57;93912.72;;;6.16;100.00
20105;BME280;10212;42.714;23.310;2023-04-03T20:48:57;93934.81;;;6.25;100.00
20105;BME280;10212;42.714;23.310;2023-04-03T20:58:58;93933.22;;;6.24;100.00
20105;BME280;10212;42.714;23.310;2023-04-03T21:19:22;93919.03;;;6.34;100.00
20105;BME280;10212;42.714;23.310;2023-04-03T21:29:23;93894.00;;;6.27;100.00
20105;BME280;10212;42.714;23.310;2023-04-03T21:39:23;93865.16;;;6.17;100.00
20105;BME280;10212;42.714;23.310;2023-04-03T21:49:23;93846.19;;;6.23;100.00
20105;BME280;10212;42.714;23.310;2023-04-03T21:59:24;93842.59;;;6.31;100.00
20105;BME280;10212;42.714;23.310;2023-04-03T22:09:24;93824.47;;;6.31;100.00
20105;BME280;10212;42.714;23.310;2023-04-03T22:19:25;93833.84;;;6.25;100.00
20105;BME280;10212;42.714;23.310;2023-04-03T22:29:25;93820.16;;;6.18;100.00
20105;BME280;10212;42.714;23.310;2023-04-03T22:39:26;93811.22;;;6.07;100.00
20105;BME280;10212;42.714;23.310;2023-04-03T22:49:26;93770.03;;;6.06;100.00
20105;BME280;10212;42.714;23.310;2023-04-03T22:59:27;93805.63;;;6.03;100.00
20105;BME280;10212;42.714;23.310;2023-04-03T23:09:27;93797.28;;;6.15;100.00
20105;BME280;10212;42.714;23.310;2023-04-03T23:19:27;93791.66;;;6.18;100.00
20105;BME280;10212;42.714;23.310;2023-04-03T23:29:27;93792.09;;;6.15;100.00
20105;BME280;10212;42.714;23.310;2023-04-03T23:39:28;93777.50;;;6.27;100.00
20105;BME280;10212;42.714;23.310;2023-04-03T23:49:28;93759.38;;;6.27;100.00
20105;BME280;10212;42.714;23.310;2023-04-03T23:59:28;93753.22;;;6.22;100.00
